Terminal Aerodrome Forecast
Issued by NWS

Home | Current Version | Previous Version | Text Only | Print | Product List | Glossary On
Versions: 1 2 3 4 5 6 7 8 9 10 11 12 13 14 15 16 17 18 19 20 21 22 23 24 25 26 27 28 29 30 31
000
FTUS41 KBUF 301100
TAFJHW
TAF
KJHW 301120Z 3012/3112 20008KT P6SM -SHRA SCT035 OVC070
     FM301300 22007KT P6SM VCSH BKN035 BKN060
     FM301600 27009KT P6SM BKN035 BKN100
     FM302300 26005KT P6SM SCT035
      AMD LTD TO CLD VIS AND WIND=

USA.gov is the U.S. government's official web portal to all federal, state and local government web resources and services.